sensor_id;sensor_type;location;lat;lon;timestamp;temperature;humidity
46652;DHT22;32377;52.182;5.398;2022-11-21T00:00:23;2.30;99.90
46652;DHT22;32377;52.182;5.398;2022-11-21T00:02:49;2.20;99.90
46652;DHT22;32377;52.182;5.398;2022-11-21T00:05:15;2.20;99.90
46652;DHT22;32377;52.182;5.398;2022-11-21T00:07:40;2.20;99.90
46652;DHT22;32377;52.182;5.398;2022-11-21T00:10:06;2.10;99.90
46652;DHT22;32377;52.182;5.398;2022-11-21T00:12:32;2.10;99.90
46652;DHT22;32377;52.182;5.398;2022-11-21T00:14:57;2.10;99.90
46652;DHT22;32377;52.182;5.398;2022-11-21T00:17:23;2.10;99.90
46652;DHT22;32377;52.182;5.398;2022-11-21T00:19:48;2.00;99.90
46652;DHT22;32377;52.182;5.398;2022-11-21T00:22:14;2.00;99.90
46652;DHT22;32377;52.182;5.398;2022-11-21T00:24:39;2.10;99.90
46652;DHT22;32377;52.182;5.398;2022-11-21T00:27:05;2.10;99.90
46652;DHT22;32377;52.182;5.398;2022-11-21T00:29:31;2.10;99.90
46652;DHT22;32377;52.182;5.398;2022-11-21T00:31:56;2.10;99.90
46652;DHT22;32377;52.182;5.398;2022-11-21T00:34:22;2.10;99.90
46652;DHT22;32377;52.182;5.398;2022-11-21T00:36:47;2.10;99.90
46652;DHT22;32377;52.182;5.398;2022-11-21T00:39:13;2.10;99.90
46652;DHT22;32377;52.182;5.398;2022-11-21T00:41:38;2.10;99.90
46652;DHT22;32377;52.182;5.398;2022-11-21T00:44:04;2.10;99.90
46652;DHT22;32377;52.182;5.398;2022-11-21T00:46:30;2.20;99.90
46652;DHT22;32377;52.182;5.398;2022-11-21T00:48:56;2.10;99.90
46652;DHT22;32377;52.182;5.398;2022-11-21T00:51:21;2.10;99.90
46652;DHT22;32377;52.182;5.398;2022-11-21T00:53:47;2.20;99.90
46652;DHT22;32377;52.182;5.398;2022-11-21T00:56:12;2.30;99.90
46652;DHT22;32377;52.182;5.398;2022-11-21T00:58:38;2.30;99.90
46652;DHT22;32377;52.182;5.398;2022-11-21T01:01:06;2.20;99.90
46652;DHT22;32377;52.182;5.398;2022-11-21T01:03:33;2.20;99.90
46652;DHT22;32377;52.182;5.398;2022-11-21T01:06:10;2.20;99.90
46652;DHT22;32377;52.182;5.398;2022-11-21T01:08:38;2.20;99.90
46652;DHT22;32377;52.182;5.398;2022-11-21T01:11:06;2.30;99.90
46652;DHT22;32377;52.182;5.398;2022-11-21T01:13:32;2.30;99.90
46652;DHT22;32377;52.182;5.398;2022-11-21T01:16:06;2.20;99.90
46652;DHT22;32377;52.182;5.398;2022-11-21T01:18:32;2.30;99.90
46652;DHT22;32377;52.182;5.398;2022-11-21T01:21:00;2.10;99.90
46652;DHT22;32377;52.182;5.398;2022-11-21T01:23:26;2.10;99.90
46652;DHT22;32377;52.182;5.398;2022-11-21T01:25:52;2.10;99.90
46652;DHT22;32377;52.182;5.398;2022-11-21T01:28:17;2.10;99.90
46652;DHT22;32377;52.182;5.398;2022-11-21T01:30:43;2.10;99.90
46652;DHT22;32377;52.182;5.398;2022-11-21T01:33:08;2.10;99.90
46652;DHT22;32377;52.182;5.398;2022-11-21T01:35:34;2.10;99.90
46652;DHT22;32377;52.182;5.398;2022-11-21T01:37:59;2.10;99.90
46652;DHT22;32377;52.182;5.398;2022-11-21T01:40:25;2.10;99.90
46652;DHT22;32377;52.182;5.398;2022-11-21T01:42:52;2.10;99.90
46652;DHT22;32377;52.182;5.398;2022-11-21T01:48:54;2.00;99.90
46652;DHT22;32377;52.182;5.398;2022-11-21T01:51:27;2.10;99.90
46652;DHT22;32377;52.182;5.398;2022-11-21T01:54:10;2.10;99.90
46652;DHT22;32377;52.182;5.398;2022-11-21T01:59:19;2.20;99.90
46652;DHT22;32377;52.182;5.398;2022-11-21T02:01:46;2.20;99.90
46652;DHT22;32377;52.182;5.398;2022-11-21T02:04:14;2.10;99.90
46652;DHT22;32377;52.182;5.398;2022-11-21T02:06:40;2.10;99.90
46652;DHT22;32377;52.182;5.398;2022-11-21T02:09:06;2.00;99.90
46652;DHT22;32377;52.182;5.398;2022-11-21T02:11:36;2.10;99.90
46652;DHT22;32377;52.182;5.398;2022-11-21T02:14:04;2.10;99.90
46652;DHT22;32377;52.182;5.398;2022-11-21T02:16:30;2.00;99.90
46652;DHT22;32377;52.182;5.398;2022-11-21T02:18:55;2.00;99.90
46652;DHT22;32377;52.182;5.398;2022-11-21T02:24:29;2.00;99.90
46652;DHT22;32377;52.182;5.398;2022-11-21T02:26:58;2.00;99.90
46652;DHT22;32377;52.182;5.398;2022-11-21T02:29:25;2.10;99.90
46652;DHT22;32377;52.182;5.398;2022-11-21T02:31:51;2.10;99.90
46652;DHT22;32377;52.182;5.398;2022-11-21T02:34:17;2.10;99.90
46652;DHT22;32377;52.182;5.398;2022-11-21T02:36:46;2.10;99.90
46652;DHT22;32377;52.182;5.398;2022-11-21T02:39:47;2.10;99.90
46652;DHT22;32377;52.182;5.398;2022-11-21T02:42:20;2.10;99.90
46652;DHT22;32377;52.182;5.398;2022-11-21T02:44:56;2.10;99.90
46652;DHT22;32377;52.182;5.398;2022-11-21T02:47:26;2.10;99.90
46652;DHT22;32377;52.182;5.398;2022-11-21T02:50:00;2.10;99.90
46652;DHT22;32377;52.182;5.398;2022-11-21T02:52:27;2.10;99.90
46652;DHT22;32377;52.182;5.398;2022-11-21T02:54:52;2.00;99.90
46652;DHT22;32377;52.182;5.398;2022-11-21T02:57:18;2.10;99.90
46652;DHT22;32377;52.182;5.398;2022-11-21T02:59:44;2.10;99.90
46652;DHT22;32377;52.182;5.398;2022-11-21T03:02:09;2.10;99.90
46652;DHT22;32377;52.182;5.398;2022-11-21T03:04:35;2.10;99.90
46652;DHT22;32377;52.182;5.398;2022-11-21T03:07:00;2.20;99.90
46652;DHT22;32377;52.182;5.398;2022-11-21T03:09:26;2.20;99.90
46652;DHT22;32377;52.182;5.398;2022-11-21T03:11:51;2.20;99.90
46652;DHT22;32377;52.182;5.398;2022-11-21T03:14:17;2.20;99.90
46652;DHT22;32377;52.182;5.398;2022-11-21T03:16:43;2.10;99.90
46652;DHT22;32377;52.182;5.398;2022-11-21T03:19:08;2.10;99.90
46652;DHT22;32377;52.182;5.398;2022-11-21T03:21:34;2.10;99.90
46652;DHT22;32377;52.182;5.398;2022-11-21T03:23:59;2.20;99.90
46652;DHT22;32377;52.182;5.398;2022-11-21T03:26:25;2.20;99.90
46652;DHT22;32377;52.182;5.398;2022-11-21T03:28:50;2.20;99.90
46652;DHT22;32377;52.182;5.398;2022-11-21T03:31:16;2.20;99.90
46652;DHT22;32377;52.182;5.398;2022-11-21T03:33:41;2.20;99.90
46652;DHT22;32377;52.182;5.398;2022-11-21T03:36:07;2.10;99.90
46652;DHT22;32377;52.182;5.398;2022-11-21T03:38:33;2.10;99.90
46652;DHT22;32377;52.182;5.398;2022-11-21T03:41:03;2.10;99.90
46652;DHT22;32377;52.182;5.398;2022-11-21T03:43:30;2.20;99.90
46652;DHT22;32377;52.182;5.398;2022-11-21T03:45:55;2.20;99.90
46652;DHT22;32377;52.182;5.398;2022-11-21T03:48:21;2.10;99.90
46652;DHT22;32377;52.182;5.398;2022-11-21T03:50:46;2.10;99.90
46652;DHT22;32377;52.182;5.398;2022-11-21T03:53:12;2.10;99.90
46652;DHT22;32377;52.182;5.398;2022-11-21T03:55:38;2.20;99.90
46652;DHT22;32377;52.182;5.398;2022-11-21T03:58:03;2.20;99.90
46652;DHT22;32377;52.182;5.398;2022-11-21T04:00:29;2.10;99.90
46652;DHT22;32377;52.182;5.398;2022-11-21T04:02:54;2.10;99.90
46652;DHT22;32377;52.182;5.398;2022-11-21T04:05:20;2.10;99.90
46652;DHT22;32377;52.182;5.398;2022-11-21T04:07:45;2.10;99.90
46652;DHT22;32377;52.182;5.398;2022-11-21T04:10:11;2.10;99.90
46652;DHT22;32377;52.182;5.398;2022-11-21T04:12:36;2.10;99.90
46652;DHT22;32377;52.182;5.398;2022-11-21T04:15:02;2.10;99.90
46652;DHT22;32377;52.182;5.398;2022-11-21T04:17:28;2.10;99.90
46652;DHT22;32377;52.182;5.398;2022-11-21T04:19:54;2.10;99.90
46652;DHT22;32377;52.182;5.398;2022-11-21T04:22:19;2.00;99.90
46652;DHT22;32377;52.182;5.398;2022-11-21T04:24:45;2.10;99.90
46652;DHT22;32377;52.182;5.398;2022-11-21T04:27:10;2.20;99.90
46652;DHT22;32377;52.182;5.398;2022-11-21T04:29:36;2.20;99.90
46652;DHT22;32377;52.182;5.398;2022-11-21T04:32:01;2.10;99.90
46652;DHT22;32377;52.182;5.398;2022-11-21T04:34:27;2.00;99.90
46652;DHT22;32377;52.182;5.398;2022-11-21T04:36:53;2.00;99.90
46652;DHT22;32377;52.182;5.398;2022-11-21T04:39:18;2.00;99.90
46652;DHT22;32377;52.182;5.398;2022-11-21T04:41:44;2.00;99.90
46652;DHT22;32377;52.182;5.398;2022-11-21T04:44:09;2.00;99.90
46652;DHT22;32377;52.182;5.398;2022-11-21T04:46:35;2.10;99.90
46652;DHT22;32377;52.182;5.398;2022-11-21T04:49:00;2.10;99.90
46652;DHT22;32377;52.182;5.398;2022-11-21T04:51:26;2.00;99.90
46652;DHT22;32377;52.182;5.398;2022-11-21T04:53:52;2.00;99.90
46652;DHT22;32377;52.182;5.398;2022-11-21T04:56:17;2.10;99.90
46652;DHT22;32377;52.182;5.398;2022-11-21T04:58:43;2.10;99.90
46652;DHT22;32377;52.182;5.398;2022-11-21T05:01:09;2.00;99.90
46652;DHT22;32377;52.182;5.398;2022-11-21T05:03:35;2.10;99.90
46652;DHT22;32377;52.182;5.398;2022-11-21T05:06:01;2.10;99.90
46652;DHT22;32377;52.182;5.398;2022-11-21T05:08:27;2.10;99.90
46652;DHT22;32377;52.182;5.398;2022-11-21T05:10:52;2.10;99.90
46652;DHT22;32377;52.182;5.398;2022-11-21T05:13:36;2.10;99.90
46652;DHT22;32377;52.182;5.398;2022-11-21T05:16:02;2.10;99.90
46652;DHT22;32377;52.182;5.398;2022-11-21T05:18:29;2.00;99.90
46652;DHT22;32377;52.182;5.398;2022-11-21T05:20:55;2.10;99.90
46652;DHT22;32377;52.182;5.398;2022-11-21T05:23:21;2.10;99.90
46652;DHT22;32377;52.182;5.398;2022-11-21T05:25:47;2.10;99.90
46652;DHT22;32377;52.182;5.398;2022-11-21T05:28:12;2.10;99.90
46652;DHT22;32377;52.182;5.398;2022-11-21T05:30:38;2.10;99.90
46652;DHT22;32377;52.182;5.398;2022-11-21T05:33:03;2.20;99.90
46652;DHT22;32377;52.182;5.398;2022-11-21T05:35:29;2.10;99.90
46652;DHT22;32377;52.182;5.398;2022-11-21T05:37:56;2.10;99.90
46652;DHT22;32377;52.182;5.398;2022-11-21T05:40:22;2.10;99.90
46652;DHT22;32377;52.182;5.398;2022-11-21T05:42:48;2.20;99.90
46652;DHT22;32377;52.182;5.398;2022-11-21T05:45:33;2.20;99.90
46652;DHT22;32377;52.182;5.398;2022-11-21T05:47:58;2.20;99.90
46652;DHT22;32377;52.182;5.398;2022-11-21T05:50:24;2.20;99.90
46652;DHT22;32377;52.182;5.398;2022-11-21T05:52:49;2.10;99.90
46652;DHT22;32377;52.182;5.398;2022-11-21T05:55:15;2.10;99.90
46652;DHT22;32377;52.182;5.398;2022-11-21T05:57:40;2.20;99.90
46652;DHT22;32377;52.182;5.398;2022-11-21T06:00:07;2.20;99.90
46652;DHT22;32377;52.182;5.398;2022-11-21T06:02:32;2.20;99.90
46652;DHT22;32377;52.182;5.398;2022-11-21T06:05:16;2.20;99.90
46652;DHT22;32377;52.182;5.398;2022-11-21T06:07:42;2.20;99.90
46652;DHT22;32377;52.182;5.398;2022-11-21T06:10:08;2.20;99.90
46652;DHT22;32377;52.182;5.398;2022-11-21T06:12:34;2.20;99.90
46652;DHT22;32377;52.182;5.398;2022-11-21T06:14:59;2.30;99.90
46652;DHT22;32377;52.182;5.398;2022-11-21T06:17:25;2.30;99.90
46652;DHT22;32377;52.182;5.398;2022-11-21T06:19:50;2.30;99.90
46652;DHT22;32377;52.182;5.398;2022-11-21T06:22:17;2.30;99.90
46652;DHT22;32377;52.182;5.398;2022-11-21T06:24:42;2.30;99.90
46652;DHT22;32377;52.182;5.398;2022-11-21T06:27:08;2.30;99.90
46652;DHT22;32377;52.182;5.398;2022-11-21T06:29:34;2.30;99.90
46652;DHT22;32377;52.182;5.398;2022-11-21T06:31:59;2.30;99.90
46652;DHT22;32377;52.182;5.398;2022-11-21T06:34:25;2.30;99.90
46652;DHT22;32377;52.182;5.398;2022-11-21T06:36:51;2.30;99.90
46652;DHT22;32377;52.182;5.398;2022-11-21T06:39:17;2.40;99.90
46652;DHT22;32377;52.182;5.398;2022-11-21T06:41:42;2.40;99.90
46652;DHT22;32377;52.182;5.398;2022-11-21T06:44:16;2.50;99.90
46652;DHT22;32377;52.182;5.398;2022-11-21T06:46:42;2.40;99.90
46652;DHT22;32377;52.182;5.398;2022-11-21T06:49:07;2.50;99.90
46652;DHT22;32377;52.182;5.398;2022-11-21T06:51:33;2.40;99.90
46652;DHT22;32377;52.182;5.398;2022-11-21T06:53:59;2.40;99.90
46652;DHT22;32377;52.182;5.398;2022-11-21T06:56:26;2.50;99.90
46652;DHT22;32377;52.182;5.398;2022-11-21T06:58:52;2.50;99.90
46652;DHT22;32377;52.182;5.398;2022-11-21T07:01:18;2.50;99.90
46652;DHT22;32377;52.182;5.398;2022-11-21T07:03:44;2.40;99.90
46652;DHT22;32377;52.182;5.398;2022-11-21T07:06:10;2.50;99.90
46652;DHT22;32377;52.182;5.398;2022-11-21T07:08:36;2.60;99.90
46652;DHT22;32377;52.182;5.398;2022-11-21T07:11:03;2.60;99.90
46652;DHT22;32377;52.182;5.398;2022-11-21T07:13:29;2.60;99.90
46652;DHT22;32377;52.182;5.398;2022-11-21T07:16:00;2.60;99.90
46652;DHT22;32377;52.182;5.398;2022-11-21T07:18:26;2.60;99.90
46652;DHT22;32377;52.182;5.398;2022-11-21T07:20:57;2.70;99.90
46652;DHT22;32377;52.182;5.398;2022-11-21T07:23:22;2.70;99.90
46652;DHT22;32377;52.182;5.398;2022-11-21T07:25:48;2.70;99.90
46652;DHT22;32377;52.182;5.398;2022-11-21T07:28:13;2.80;99.90
46652;DHT22;32377;52.182;5.398;2022-11-21T07:30:39;2.80;99.90
46652;DHT22;32377;52.182;5.398;2022-11-21T07:33:05;2.80;99.90
46652;DHT22;32377;52.182;5.398;2022-11-21T07:35:32;2.80;99.90
46652;DHT22;32377;52.182;5.398;2022-11-21T07:37:58;2.80;99.90
46652;DHT22;32377;52.182;5.398;2022-11-21T07:40:24;2.80;99.90
46652;DHT22;32377;52.182;5.398;2022-11-21T07:42:50;2.80;99.90
46652;DHT22;32377;52.182;5.398;2022-11-21T07:45:16;2.90;99.90
46652;DHT22;32377;52.182;5.398;2022-11-21T07:47:42;2.80;99.90
46652;DHT22;32377;52.182;5.398;2022-11-21T07:50:09;2.80;99.90
46652;DHT22;32377;52.182;5.398;2022-11-21T07:52:35;2.90;99.90
46652;DHT22;32377;52.182;5.398;2022-11-21T07:55:01;2.90;99.90
46652;DHT22;32377;52.182;5.398;2022-11-21T07:57:31;2.90;99.90
46652;DHT22;32377;52.182;5.398;2022-11-21T07:59:56;3.00;99.90
46652;DHT22;32377;52.182;5.398;2022-11-21T08:02:27;3.00;99.90
46652;DHT22;32377;52.182;5.398;2022-11-21T08:04:53;3.00;99.90
46652;DHT22;32377;52.182;5.398;2022-11-21T08:07:20;3.00;99.90
46652;DHT22;32377;52.182;5.398;2022-11-21T08:09:46;3.00;99.90
46652;DHT22;32377;52.182;5.398;2022-11-21T08:12:12;3.10;99.90
46652;DHT22;32377;52.182;5.398;2022-11-21T08:14:38;3.10;99.90
46652;DHT22;32377;52.182;5.398;2022-11-21T08:17:04;3.10;99.90
46652;DHT22;32377;52.182;5.398;2022-11-21T08:19:30;3.10;99.90
46652;DHT22;32377;52.182;5.398;2022-11-21T08:21:55;3.10;99.90
46652;DHT22;32377;52.182;5.398;2022-11-21T08:24:21;3.10;99.90
46652;DHT22;32377;52.182;5.398;2022-11-21T08:26:47;3.10;99.90
46652;DHT22;32377;52.182;5.398;2022-11-21T08:29:13;3.20;99.90
46652;DHT22;32377;52.182;5.398;2022-11-21T08:31:42;3.20;99.90
46652;DHT22;32377;52.182;5.398;2022-11-21T08:34:09;3.30;99.90
46652;DHT22;32377;52.182;5.398;2022-11-21T08:36:35;3.30;99.90
46652;DHT22;32377;52.182;5.398;2022-11-21T08:39:01;3.40;99.90
46652;DHT22;32377;52.182;5.398;2022-11-21T08:41:26;3.40;99.90
46652;DHT22;32377;52.182;5.398;2022-11-21T08:44:10;3.50;99.90
46652;DHT22;32377;52.182;5.398;2022-11-21T08:46:36;3.50;99.90
46652;DHT22;32377;52.182;5.398;2022-11-21T08:49:03;3.50;99.90
46652;DHT22;32377;52.182;5.398;2022-11-21T08:51:29;3.60;99.90
46652;DHT22;32377;52.182;5.398;2022-11-21T08:53:54;3.60;99.90
46652;DHT22;32377;52.182;5.398;2022-11-21T08:56:20;3.60;99.90
46652;DHT22;32377;52.182;5.398;2022-11-21T08:58:45;3.70;99.90
46652;DHT22;32377;52.182;5.398;2022-11-21T09:01:11;3.80;99.90
46652;DHT22;32377;52.182;5.398;2022-11-21T09:03:36;3.80;99.90
46652;DHT22;32377;52.182;5.398;2022-11-21T09:06:02;3.90;99.90
46652;DHT22;32377;52.182;5.398;2022-11-21T09:08:29;3.80;99.90
46652;DHT22;32377;52.182;5.398;2022-11-21T09:10:55;3.90;99.90
46652;DHT22;32377;52.182;5.398;2022-11-21T09:13:20;3.90;99.90
46652;DHT22;32377;52.182;5.398;2022-11-21T09:15:46;4.00;99.90
46652;DHT22;32377;52.182;5.398;2022-11-21T09:18:30;4.00;99.90
46652;DHT22;32377;52.182;5.398;2022-11-21T09:20:56;4.10;99.90
46652;DHT22;32377;52.182;5.398;2022-11-21T09:23:21;4.10;99.90
46652;DHT22;32377;52.182;5.398;2022-11-21T09:25:47;4.20;99.90
46652;DHT22;32377;52.182;5.398;2022-11-21T09:28:13;4.20;99.90
46652;DHT22;32377;52.182;5.398;2022-11-21T09:30:40;4.20;99.90
46652;DHT22;32377;52.182;5.398;2022-11-21T09:33:10;4.30;99.90
46652;DHT22;32377;52.182;5.398;2022-11-21T09:35:36;4.30;99.90
46652;DHT22;32377;52.182;5.398;2022-11-21T09:38:02;4.30;99.90
46652;DHT22;32377;52.182;5.398;2022-11-21T09:40:29;4.40;99.90
46652;DHT22;32377;52.182;5.398;2022-11-21T09:45:40;4.50;99.90
46652;DHT22;32377;52.182;5.398;2022-11-21T09:48:28;4.50;99.90
46652;DHT22;32377;52.182;5.398;2022-11-21T09:51:02;4.50;99.90
46652;DHT22;32377;52.182;5.398;2022-11-21T09:53:35;4.50;99.90
46652;DHT22;32377;52.182;5.398;2022-11-21T09:56:06;4.50;99.90
46652;DHT22;32377;52.182;5.398;2022-11-21T10:01:04;4.60;99.90
46652;DHT22;32377;52.182;5.398;2022-11-21T10:03:43;4.60;99.90
46652;DHT22;32377;52.182;5.398;2022-11-21T10:06:24;4.70;99.90
46652;DHT22;32377;52.182;5.398;2022-11-21T10:08:55;4.60;99.90
46652;DHT22;32377;52.182;5.398;2022-11-21T10:15:00;4.70;99.90
46652;DHT22;32377;52.182;5.398;2022-11-21T10:17:40;4.70;99.90
46652;DHT22;32377;52.182;5.398;2022-11-21T10:23:23;4.70;99.90
46652;DHT22;32377;52.182;5.398;2022-11-21T10:25:55;4.70;99.90
46652;DHT22;32377;52.182;5.398;2022-11-21T10:28:30;4.80;99.90
46652;DHT22;32377;52.182;5.398;2022-11-21T10:30:59;4.80;99.90
46652;DHT22;32377;52.182;5.398;2022-11-21T10:33:30;4.90;99.90
46652;DHT22;32377;52.182;5.398;2022-11-21T10:36:32;4.90;99.90
46652;DHT22;32377;52.182;5.398;2022-11-21T10:39:18;4.90;99.90
46652;DHT22;32377;52.182;5.398;2022-11-21T10:41:57;5.00;99.90
46652;DHT22;32377;52.182;5.398;2022-11-21T10:47:24;5.10;99.90
46652;DHT22;32377;52.182;5.398;2022-11-21T10:50:01;5.10;99.90
46652;DHT22;32377;52.182;5.398;2022-11-21T10:52:34;5.20;99.90
46652;DHT22;32377;52.182;5.398;2022-11-21T10:55:04;5.20;99.90
46652;DHT22;32377;52.182;5.398;2022-11-21T10:57:42;5.30;99.90
46652;DHT22;32377;52.182;5.398;2022-11-21T11:02:42;5.30;99.90
46652;DHT22;32377;52.182;5.398;2022-11-21T11:07:41;5.40;99.90
46652;DHT22;32377;52.182;5.398;2022-11-21T11:10:23;5.50;99.90
46652;DHT22;32377;52.182;5.398;2022-11-21T11:12:50;5.60;99.90
46652;DHT22;32377;52.182;5.398;2022-11-21T11:15:36;5.60;99.90
46652;DHT22;32377;52.182;5.398;2022-11-21T11:18:04;5.80;99.90
46652;DHT22;32377;52.182;5.398;2022-11-21T11:20:42;5.80;99.90
46652;DHT22;32377;52.182;5.398;2022-11-21T11:23:25;5.80;99.90
46652;DHT22;32377;52.182;5.398;2022-11-21T11:25:53;5.80;99.90
46652;DHT22;32377;52.182;5.398;2022-11-21T11:28:20;5.90;99.90
46652;DHT22;32377;52.182;5.398;2022-11-21T11:30:49;6.00;99.90
46652;DHT22;32377;52.182;5.398;2022-11-21T11:33:39;6.00;99.90
46652;DHT22;32377;52.182;5.398;2022-11-21T11:36:37;6.10;99.90
46652;DHT22;32377;52.182;5.398;2022-11-21T11:47:58;6.40;99.90
46652;DHT22;32377;52.182;5.398;2022-11-21T11:50:40;6.40;99.90
46652;DHT22;32377;52.182;5.398;2022-11-21T11:53:25;6.40;99.90
46652;DHT22;32377;52.182;5.398;2022-11-21T11:56:04;6.40;99.90
46652;DHT22;32377;52.182;5.398;2022-11-21T12:03:59;6.60;99.90
46652;DHT22;32377;52.182;5.398;2022-11-21T12:09:15;6.50;99.90
46652;DHT22;32377;52.182;5.398;2022-11-21T12:23:54;6.90;99.90
46652;DHT22;32377;52.182;5.398;2022-11-21T12:33:06;6.60;99.90
46652;DHT22;32377;52.182;5.398;2022-11-21T12:35:22;6.70;99.90
46652;DHT22;32377;52.182;5.398;2022-11-21T12:45:44;6.70;99.90
46652;DHT22;32377;52.182;5.398;2022-11-21T12:48:15;6.60;99.90
46652;DHT22;32377;52.182;5.398;2022-11-21T12:54:47;6.60;99.90
46652;DHT22;32377;52.182;5.398;2022-11-21T12:57:16;6.60;99.90
46652;DHT22;32377;52.182;5.398;2022-11-21T12:59:58;6.70;99.90
46652;DHT22;32377;52.182;5.398;2022-11-21T13:02:29;6.70;99.90
46652;DHT22;32377;52.182;5.398;2022-11-21T13:05:10;6.70;99.90
46652;DHT22;32377;52.182;5.398;2022-11-21T13:07:37;6.70;99.90
46652;DHT22;32377;52.182;5.398;2022-11-21T13:10:04;6.70;99.90
46652;DHT22;32377;52.182;5.398;2022-11-21T13:15:14;6.70;99.90
46652;DHT22;32377;52.182;5.398;2022-11-21T13:20:23;6.70;99.90
46652;DHT22;32377;52.182;5.398;2022-11-21T13:22:54;6.80;99.90
46652;DHT22;32377;52.182;5.398;2022-11-21T13:30:54;6.90;99.90
46652;DHT22;32377;52.182;5.398;2022-11-21T13:36:05;6.90;99.90
46652;DHT22;32377;52.182;5.398;2022-11-21T13:46:57;7.00;99.90
46652;DHT22;32377;52.182;5.398;2022-11-21T13:52:41;7.00;99.90
46652;DHT22;32377;52.182;5.398;2022-11-21T13:58:12;7.00;99.90
46652;DHT22;32377;52.182;5.398;2022-11-21T14:01:10;7.00;99.90
46652;DHT22;32377;52.182;5.398;2022-11-21T14:04:02;6.90;99.90
46652;DHT22;32377;52.182;5.398;2022-11-21T14:06:37;6.90;99.90
46652;DHT22;32377;52.182;5.398;2022-11-21T14:09:17;6.80;99.90
46652;DHT22;32377;52.182;5.398;2022-11-21T14:17:19;6.90;99.90
46652;DHT22;32377;52.182;5.398;2022-11-21T14:19:47;6.80;99.90
46652;DHT22;32377;52.182;5.398;2022-11-21T14:22:39;6.80;99.90
46652;DHT22;32377;52.182;5.398;2022-11-21T14:25:08;6.80;99.90
46652;DHT22;32377;52.182;5.398;2022-11-21T14:27:38;6.80;99.90
46652;DHT22;32377;52.182;5.398;2022-11-21T14:30:23;6.80;99.90
46652;DHT22;32377;52.182;5.398;2022-11-21T14:32:49;6.80;99.90
46652;DHT22;32377;52.182;5.398;2022-11-21T14:35:20;6.80;99.90
46652;DHT22;32377;52.182;5.398;2022-11-21T14:37:47;6.80;99.90
46652;DHT22;32377;52.182;5.398;2022-11-21T14:40:20;6.80;99.90
46652;DHT22;32377;52.182;5.398;2022-11-21T14:42:46;6.70;99.90
46652;DHT22;32377;52.182;5.398;2022-11-21T14:45:19;6.70;99.90
46652;DHT22;32377;52.182;5.398;2022-11-21T14:47:50;6.70;99.90
46652;DHT22;32377;52.182;5.398;2022-11-21T14:50:30;6.70;99.90
46652;DHT22;32377;52.182;5.398;2022-11-21T14:52:59;6.80;99.90
46652;DHT22;32377;52.182;5.398;2022-11-21T14:55:29;6.70;99.90
46652;DHT22;32377;52.182;5.398;2022-11-21T14:57:56;6.60;99.90
46652;DHT22;32377;52.182;5.398;2022-11-21T15:00:24;6.60;99.90
46652;DHT22;32377;52.182;5.398;2022-11-21T15:02:58;6.60;99.90
46652;DHT22;32377;52.182;5.398;2022-11-21T15:05:33;6.50;99.90
46652;DHT22;32377;52.182;5.398;2022-11-21T15:08:00;6.50;99.90
46652;DHT22;32377;52.182;5.398;2022-11-21T15:10:30;6.50;99.90
46652;DHT22;32377;52.182;5.398;2022-11-21T15:13:05;6.50;99.90
46652;DHT22;32377;52.182;5.398;2022-11-21T15:15:41;6.50;99.90
46652;DHT22;32377;52.182;5.398;2022-11-21T15:18:27;6.50;99.90
46652;DHT22;32377;52.182;5.398;2022-11-21T15:20:59;6.50;99.90
46652;DHT22;32377;52.182;5.398;2022-11-21T15:23:36;6.50;99.90
46652;DHT22;32377;52.182;5.398;2022-11-21T15:26:05;6.50;99.90
46652;DHT22;32377;52.182;5.398;2022-11-21T15:28:31;6.50;99.90
46652;DHT22;32377;52.182;5.398;2022-11-21T15:31:18;6.50;99.90
46652;DHT22;32377;52.182;5.398;2022-11-21T15:34:10;6.50;99.90
46652;DHT22;32377;52.182;5.398;2022-11-21T15:36:36;6.50;99.90
46652;DHT22;32377;52.182;5.398;2022-11-21T15:39:05;6.50;99.90
46652;DHT22;32377;52.182;5.398;2022-11-21T15:41:36;6.50;99.90
46652;DHT22;32377;52.182;5.398;2022-11-21T15:46:33;6.50;99.90
46652;DHT22;32377;52.182;5.398;2022-11-21T15:49:04;6.50;99.90
46652;DHT22;32377;52.182;5.398;2022-11-21T15:54:04;6.40;99.90
46652;DHT22;32377;52.182;5.398;2022-11-21T15:56:30;6.40;99.90
46652;DHT22;32377;52.182;5.398;2022-11-21T15:58:56;6.30;99.90
46652;DHT22;32377;52.182;5.398;2022-11-21T16:01:24;6.30;99.90
46652;DHT22;32377;52.182;5.398;2022-11-21T16:03:55;6.30;99.90
46652;DHT22;32377;52.182;5.398;2022-11-21T16:06:21;6.30;99.90
46652;DHT22;32377;52.182;5.398;2022-11-21T16:08:48;6.30;99.90
46652;DHT22;32377;52.182;5.398;2022-11-21T16:11:35;6.30;99.90
46652;DHT22;32377;52.182;5.398;2022-11-21T16:14:07;6.30;99.90
46652;DHT22;32377;52.182;5.398;2022-11-21T16:16:37;6.30;99.90
46652;DHT22;32377;52.182;5.398;2022-11-21T16:19:03;6.30;99.90
46652;DHT22;32377;52.182;5.398;2022-11-21T16:21:29;6.30;99.90
46652;DHT22;32377;52.182;5.398;2022-11-21T16:23:55;6.20;99.90
46652;DHT22;32377;52.182;5.398;2022-11-21T16:26:21;6.20;99.90
46652;DHT22;32377;52.182;5.398;2022-11-21T16:28:56;6.30;99.90
46652;DHT22;32377;52.182;5.398;2022-11-21T16:31:27;6.20;99.90
46652;DHT22;32377;52.182;5.398;2022-11-21T16:33:53;6.20;99.90
46652;DHT22;32377;52.182;5.398;2022-11-21T16:36:24;6.20;99.90
46652;DHT22;32377;52.182;5.398;2022-11-21T16:38:50;6.20;99.90
46652;DHT22;32377;52.182;5.398;2022-11-21T16:41:20;6.30;99.90
46652;DHT22;32377;52.182;5.398;2022-11-21T16:43:51;6.20;99.90
46652;DHT22;32377;52.182;5.398;2022-11-21T16:46:20;6.30;99.90
46652;DHT22;32377;52.182;5.398;2022-11-21T16:48:46;6.30;99.90
46652;DHT22;32377;52.182;5.398;2022-11-21T16:51:14;6.20;99.90
46652;DHT22;32377;52.182;5.398;2022-11-21T16:53:40;6.20;99.90
46652;DHT22;32377;52.182;5.398;2022-11-21T16:56:06;6.20;99.90
46652;DHT22;32377;52.182;5.398;2022-11-21T16:58:32;6.20;99.90
46652;DHT22;32377;52.182;5.398;2022-11-21T17:01:09;6.20;99.90
46652;DHT22;32377;52.182;5.398;2022-11-21T17:03:37;6.20;99.90
46652;DHT22;32377;52.182;5.398;2022-11-21T17:06:03;6.20;99.90
46652;DHT22;32377;52.182;5.398;2022-11-21T17:08:29;6.20;99.90
46652;DHT22;32377;52.182;5.398;2022-11-21T17:10:55;6.20;99.90
46652;DHT22;32377;52.182;5.398;2022-11-21T17:13:20;6.20;99.90
46652;DHT22;32377;52.182;5.398;2022-11-21T17:15:46;6.20;99.90
46652;DHT22;32377;52.182;5.398;2022-11-21T17:18:11;6.20;99.90
46652;DHT22;32377;52.182;5.398;2022-11-21T17:20:37;6.20;99.90
46652;DHT22;32377;52.182;5.398;2022-11-21T17:23:02;6.20;99.90
46652;DHT22;32377;52.182;5.398;2022-11-21T17:25:28;6.20;99.90
46652;DHT22;32377;52.182;5.398;2022-11-21T17:27:54;6.20;99.90
46652;DHT22;32377;52.182;5.398;2022-11-21T17:30:20;6.20;99.90
46652;DHT22;32377;52.182;5.398;2022-11-21T17:32:47;6.20;99.90
46652;DHT22;32377;52.182;5.398;2022-11-21T17:35:12;6.10;99.90
46652;DHT22;32377;52.182;5.398;2022-11-21T17:37:38;6.20;99.90
46652;DHT22;32377;52.182;5.398;2022-11-21T17:40:04;6.10;99.90
46652;DHT22;32377;52.182;5.398;2022-11-21T17:42:31;6.10;99.90
46652;DHT22;32377;52.182;5.398;2022-11-21T17:44:57;6.20;99.90
46652;DHT22;32377;52.182;5.398;2022-11-21T17:47:22;6.10;99.90
46652;DHT22;32377;52.182;5.398;2022-11-21T17:49:48;6.20;99.90